CW2086 Weather Reports


Display with metric or nautical units.
time (UTC)temp
F
wind
direction
speed
MPH
gust
MPH
rain 1hr
in
rain 24hr
in
rain mn
in
humidity
%
barometer
mb
20200119011623 10 292 4.0 13.0 0.00 0.05 0.05 83 1013.0
20200119005623 10 306 3.0 13.0 0.00 0.05 0.05 83 1012.6
20200119004623 10 282 3.0 14.0 0.00 0.05 0.05 84 1012.4
20200119002623 11 320 5.0 11.0 0.00 0.05 0.05 85 1011.8
20200118235622 12 207 4.0 12.0 0.00 0.05 0.05 85 1011.1
20200118233622 12 231 3.0 14.0 0.00 0.05 0.05 86 1010.6
20200118231622 13 277 3.0 11.0 0.00 0.05 0.05 86 1010.2
20200118230622 13 241 3.0 15.0 0.00 0.05 0.05 86 1009.7
20200118225622 14 242 2.0 10.0 0.00 0.05 0.05 87 1009.6
20200118224622 14 216 4.0 10.0 0.00 0.05 0.05 87 1009.4
20200118222621 15 272 6.0 12.0 0.00 0.05 0.05 87 1008.7
20200118220621 17 268 3.0 15.0 0.00 0.05 0.05 88 1008.3
20200118213621 19 247 6.0 17.0 0.00 0.05 0.05 90 1007.3
20200118210621 21 171 9.0 11.0 0.00 0.05 0.05 90 1006.6
20200118203620 25 254 10.0 12.0 0.01 0.05 0.05 89 1005.4
20200118202621 27 247 11.0 16.0 0.01 0.05 0.05 89 1005.1
20200118200620 30 296 4.0 10.0 0.01 0.05 0.05 91 1004.7
20200118194620 30 292 3.0 10.0 0.02 0.04 0.04 91 1004.5
20200118193620 30 271 4.0 13.0 0.02 0.04 0.04 91 1004.5
20200118192620 30 244 3.0 13.0 0.03 0.04 0.04 91 1004.5
20200118183619 31 240 4.0 12.0 0.02 0.02 0.02 93 1004.4
20200118181619 31 294 3.0 10.0 0.01 0.01 0.01 93 1004.3
20200118180619 32 271 7.0 11.0 0.01 0.01 0.01 94 1004.3
20200118174619 32 261 4.0 11.0 0.01 0.01 0.01 95 1004.2
20200118173619 32 300 3.0 9.0 0.01 0.01 0.01 95 1004.1
20200118170619 32 308 9.0 13.0 0.00 0.00 0.00 96 1004.1
20200118164618 31 289 4.0 11.0 0.00 0.00 0.00 96 1004.1
20200118163618 31 294 8.0 10.0 0.00 0.00 0.00 96 1004.3
20200118161618 31 241 3.0 9.0 0.00 0.00 0.00 96 1004.2
20200118160618 32 240 14.0 14.0 0.00 0.00 0.00 96 1004.2
20200118155618 32 251 4.0 10.0 0.00 0.00 0.00 96 1004.2
20200118154618 31 274 2.0 5.0 0.00 0.00 0.00 96 1004.3
20200118153618 31 230 1.0 5.0 0.00 0.00 0.00 96 1004.2
20200118152618 31 209 1.0 5.0 0.00 0.00 0.00 96 1004.2
20200118151618 31 214 2.0 5.0 0.00 0.00 0.00 96 1004.2
20200118150618 31 144 1.0 3.0 0.00 0.00 0.00 96 1004.2
20200118145617 31 143 0.0 3.0 0.00 0.00 0.00 96 1004.3
20200118143617 30 142 0.0 0.0 0.00 0.00 0.00 96 1004.1
20200118142617 30 142 0.0 0.0 0.00 0.00 0.00 96 1004.3
20200118140617 30 142 0.0 0.0 0.00 0.00 0.00 96 1004.6
20200118134616 30 142 0.0 0.0 0.00 0.00 0.00 96 1004.6
20200118130617 30 141 0.0 0.0 0.00 0.00 0.00 96 1005.2
20200118125616 30 141 0.0 0.0 0.00 0.00 0.00 96 1005.3
20200118124616 30 141 0.0 0.0 0.00 0.00 0.00 96 1005.5
20200118123616 30 141 0.0 0.0 0.00 0.00 0.00 96 1005.6
20200118122616 30 142 0.0 0.0 0.00 0.00 0.00 96 1005.5
20200118114616 30 141 0.0 2.0 0.00 0.00 0.00 96 1006.4
20200118113615 30 141 1.0 4.0 0.00 0.00 0.00 96 1007.1
20200118111615 29 142 0.0 3.0 0.00 0.00 0.00 95 1007.3
20200118104615 29 142 1.0 3.0 0.00 0.00 0.00 95 1008.3
20200118103615 29 144 0.0 0.0 0.00 0.00 0.00 95 1008.4
20200118102615 29 145 0.0 0.0 0.00 0.00 0.00 95 1008.7
20200118101615 29 145 0.0 4.0 0.00 0.00 0.00 95 1009.2
20200118100614 29 148 0.0 6.0 0.00 0.00 0.00 95 1009.4
20200118095614 29 143 4.0 6.0 0.00 0.00 0.00 95 1009.7
20200118094615 29 143 4.0 7.0 0.00 0.00 0.00 95 1010.1
20200118093614 29 144 4.0 7.0 0.00 0.00 0.00 95 1010.4
20200118091614 29 143 4.0 6.0 0.00 0.00 0.00 95 1010.8
20200118090614 29 142 2.0 5.0 0.00 0.00 0.00 95 1011.1
20200118084614 29 140 4.0 7.0 0.00 0.00 0.00 95 1012.0
20200118081614 29 123 2.0 9.0 0.00 0.00 0.00 95 1013.0
20200118080613 29 143 3.0 6.0 0.00 0.00 0.00 95 1013.3
20200118073613 29 142 2.0 5.0 0.00 0.00 0.00 95 1014.8
20200118071613 29 144 2.0 6.0 0.00 0.00 0.00 95 1015.3
20200118065618 29 154 6.0 9.0 0.00 0.00 0.00 95 1015.7
20200118064618 29 155 9.0 9.0 0.00 0.00 0.00 95 1016.4
20200118063618 29 137 5.0 9.0 0.00 0.00 0.00 95 1017.0
20200118062617 29 148 5.0 8.0 0.00 0.00 0.00 95 1017.6
20200118061618 28 148 3.0 8.0 0.00 0.00 0.00 95 1017.4
20200118055617 28 146 3.0 6.0 0.00 0.00 0.00 95 1017.5
20200118054617 28 147 5.0 7.0 0.00 0.00 0.00 95 1017.6
20200118051617 28 136 3.0 10.0 0.00 0.00 0.00 95 1019.1
20200118050617 28 140 4.0 8.0 0.00 0.00 0.00 95 1019.6
20200118045617 28 143 1.0 8.0 0.00 0.00 0.00 95 1019.5
20200118043617 28 146 2.0 10.0 0.00 0.00 0.00 94 1020.1
20200118041617 27 166 4.0 9.0 0.00 0.00 0.00 95 1020.8
20200118040616 27 144 4.0 9.0 0.00 0.00 0.00 94 1020.8
20200118035616 27 166 5.0 9.0 0.00 0.00 0.00 94 1020.8
20200118024615 26 133 8.0 11.0 0.00 0.00 0.00 94 1022.7
20200118023615 26 138 3.0 13.0 0.00 0.00 0.00 93 1023.3
20200118022615 26 142 8.0 10.0 0.00 0.00 0.00 93 1023.7
20200118020615 25 142 3.0 10.0 0.00 0.00 0.00 93 1024.4
20200118014615 25 143 4.0 13.0 0.00 0.00 0.00 93 1025.0
20200118013615 25 117 10.0 15.0 0.00 0.00 0.00 93 1025.2
20200118012615 25 167 7.0 10.0 0.00 0.00 0.00 93 1025.4